createdAt,value
2018-03-10T00:02:22.606Z,15.03
2018-03-10T00:04:50.226Z,13.57
2018-03-10T00:07:18.616Z,14.63
2018-03-10T00:09:46.976Z,16.43
2018-03-10T00:12:15.359Z,14.60
2018-03-10T00:14:43.736Z,15.07
2018-03-10T00:17:12.119Z,14.40
2018-03-10T00:19:40.516Z,13.10
2018-03-10T00:22:08.133Z,14.10
2018-03-10T00:24:35.779Z,12.60
2018-03-10T00:27:03.363Z,13.23
2018-03-10T00:29:31.728Z,12.10
2018-03-10T00:31:59.406Z,12.67
2018-03-10T00:34:26.945Z,12.37
2018-03-10T00:36:54.564Z,13.23
2018-03-10T00:39:22.214Z,11.53
2018-03-10T00:41:50.698Z,11.87
2018-03-10T00:44:18.281Z,11.63
2018-03-10T00:46:45.891Z,11.30
2018-03-10T00:49:14.256Z,11.73
2018-03-10T00:51:41.879Z,12.33
2018-03-10T00:54:09.487Z,10.77
2018-03-10T00:56:37.869Z,11.97
2018-03-10T00:59:06.220Z,13.23
2018-03-10T01:01:33.864Z,11.60
2018-03-10T01:04:01.454Z,11.80
2018-03-10T01:06:29.078Z,11.20
2018-03-10T01:08:56.685Z,12.87
2018-03-10T01:11:25.089Z,11.73
2018-03-10T01:13:52.740Z,11.60
2018-03-10T01:16:20.339Z,12.17
2018-03-10T01:18:47.940Z,12.17
2018-03-10T01:21:16.302Z,11.93
2018-03-10T01:23:43.938Z,11.53
2018-03-10T01:26:11.554Z,11.57
2018-03-10T01:28:39.166Z,12.07
2018-03-10T01:31:06.798Z,12.07
2018-03-10T01:33:34.819Z,11.10
2018-03-10T01:36:02.533Z,11.63
2018-03-10T01:38:30.130Z,10.77
2018-03-10T01:40:57.773Z,10.47
2018-03-10T01:43:25.371Z,11.90
2018-03-10T01:45:52.943Z,9.50
2018-03-10T01:48:23.340Z,10.87
2018-03-10T01:50:50.933Z,12.47
2018-03-10T01:53:19.295Z,12.80
2018-03-10T01:55:47.644Z,11.63
2018-03-10T01:58:15.272Z,10.13
2018-03-10T02:00:42.846Z,10.77
2018-03-10T02:03:10.428Z,10.90
2018-03-10T02:05:38.036Z,11.10
2018-03-10T02:08:05.640Z,11.57
2018-03-10T02:10:33.266Z,9.60
2018-03-10T02:13:00.868Z,11.43
2018-03-10T02:15:28.501Z,10.80
2018-03-10T02:17:56.090Z,10.60
2018-03-10T02:20:23.687Z,11.37
2018-03-10T02:22:51.285Z,11.47
2018-03-10T02:25:18.976Z,10.70
2018-03-10T02:27:46.574Z,11.47
2018-03-10T02:30:14.181Z,11.90
2018-03-10T02:32:41.801Z,11.10
2018-03-10T02:35:09.399Z,11.90
2018-03-10T02:37:38.026Z,11.30
2018-03-10T02:40:06.380Z,10.50
2018-03-10T02:42:34.016Z,13.00
2018-03-10T02:45:01.587Z,12.77
2018-03-10T02:47:29.209Z,11.27
2018-03-10T02:49:56.826Z,11.77
2018-03-10T02:52:24.414Z,13.20
2018-03-10T02:54:52.787Z,12.80
2018-03-10T02:57:20.374Z,12.20
2018-03-10T02:59:48.003Z,11.80
2018-03-10T03:02:15.617Z,12.03
2018-03-10T03:04:43.204Z,11.70
2018-03-10T03:07:10.803Z,11.60
2018-03-10T03:09:38.411Z,12.53
2018-03-10T03:12:06.021Z,11.70
2018-03-10T03:14:33.635Z,13.07
2018-03-10T03:17:01.278Z,11.47
2018-03-10T03:19:28.851Z,10.87
2018-03-10T03:21:56.445Z,12.13
2018-03-10T03:24:24.826Z,13.07
2018-03-10T03:26:52.403Z,11.43
2018-03-10T03:29:20.030Z,13.30
2018-03-10T03:31:48.373Z,12.63
2018-03-10T03:34:15.969Z,14.57
2018-03-10T03:36:44.316Z,14.53
2018-03-10T03:39:11.928Z,13.40
2018-03-10T03:41:39.535Z,14.37
2018-03-10T03:44:07.116Z,15.13
2018-03-10T03:46:34.783Z,14.87
2018-03-10T03:49:02.361Z,16.30
2018-03-10T03:51:29.974Z,15.77
2018-03-10T03:53:57.549Z,16.30
2018-03-10T03:56:25.199Z,18.97
2018-03-10T03:58:52.773Z,19.30
2018-03-10T04:01:20.347Z,19.67
2018-03-10T04:03:48.730Z,18.93
2018-03-10T04:06:17.082Z,18.23
2018-03-10T04:08:44.730Z,20.27
2018-03-10T04:11:13.815Z,18.43
2018-03-10T04:13:41.421Z,19.63
2018-03-10T04:16:09.773Z,20.77
2018-03-10T04:18:37.371Z,19.33
2018-03-10T04:21:04.988Z,18.83
2018-03-10T04:23:32.593Z,21.77
2018-03-10T04:26:00.232Z,21.40
2018-03-10T04:28:28.575Z,22.67
2018-03-10T04:30:56.174Z,21.63
2018-03-10T04:33:24.577Z,22.23
2018-03-10T04:35:52.194Z,21.10
2018-03-10T04:38:21.823Z,22.30
2018-03-10T04:40:50.180Z,24.20
2018-03-10T04:43:37.479Z,21.67
2018-03-10T04:46:05.131Z,22.40
2018-03-10T04:48:32.722Z,21.47
2018-03-10T04:51:00.331Z,22.30
2018-03-10T04:53:27.937Z,22.80
2018-03-10T04:55:55.546Z,24.50
2018-03-10T04:58:23.147Z,22.80
2018-03-10T05:00:50.767Z,21.47
2018-03-10T05:03:18.335Z,24.43
2018-03-10T05:05:45.901Z,23.40
2018-03-10T05:08:13.487Z,21.90
2018-03-10T05:10:41.063Z,21.87
2018-03-10T05:13:09.454Z,23.83
2018-03-10T05:15:37.834Z,21.80
2018-03-10T05:18:06.166Z,21.17
2018-03-10T05:20:33.781Z,22.40
2018-03-10T05:23:01.369Z,24.87
2018-03-10T05:25:29.015Z,22.27
2018-03-10T05:27:56.591Z,22.03
2018-03-10T05:30:24.222Z,25.60
2018-03-10T05:32:51.848Z,22.00
2018-03-10T05:35:19.428Z,23.20
2018-03-10T05:37:47.815Z,22.30
2018-03-10T05:40:16.189Z,24.03
2018-03-10T05:42:44.582Z,23.23
2018-03-10T05:45:12.230Z,23.67
2018-03-10T05:47:39.827Z,22.53
2018-03-10T05:50:07.435Z,23.30
2018-03-10T05:52:35.803Z,23.60
2018-03-10T05:55:03.410Z,25.30
2018-03-10T05:57:31.016Z,23.67
2018-03-10T05:59:59.450Z,23.43
2018-03-10T06:02:27.028Z,22.67
2018-03-10T06:04:54.616Z,23.27
2018-03-10T06:07:22.223Z,23.40
2018-03-10T06:09:49.812Z,24.13
2018-03-10T06:12:17.400Z,24.80
2018-03-10T06:14:45.001Z,23.27
2018-03-10T06:17:12.621Z,23.67
2018-03-10T06:19:40.218Z,24.63
2018-03-10T06:22:07.805Z,24.80
2018-03-10T06:24:35.394Z,25.10
2018-03-10T06:27:03.003Z,24.87
2018-03-10T06:29:31.531Z,21.93
2018-03-10T06:31:59.162Z,25.60
2018-03-10T06:34:26.790Z,23.97
2018-03-10T06:36:54.385Z,24.87
2018-03-10T06:39:22.975Z,24.23
2018-03-10T06:41:51.447Z,23.53
2018-03-10T06:44:19.021Z,22.20
2018-03-10T06:46:46.644Z,23.17
2018-03-10T06:49:14.226Z,22.70
2018-03-10T06:51:41.891Z,20.97
2018-03-10T06:54:09.462Z,22.50
2018-03-10T06:56:37.101Z,23.43
2018-03-10T06:59:04.816Z,21.50
2018-03-10T07:01:32.435Z,21.40
2018-03-10T07:04:03.533Z,20.90
2018-03-10T07:06:31.904Z,23.80
2018-03-10T07:09:01.229Z,22.77
2018-03-10T07:11:28.813Z,20.73
2018-03-10T07:13:56.427Z,21.43
2018-03-10T07:16:24.810Z,24.50
2018-03-10T07:18:52.420Z,20.10
2018-03-10T07:21:20.035Z,22.70
2018-03-10T07:23:48.415Z,22.80
2018-03-10T07:26:16.026Z,22.20
2018-03-10T07:28:43.622Z,23.10
2018-03-10T07:31:12.033Z,21.33
2018-03-10T07:33:39.647Z,23.10
2018-03-10T07:36:08.137Z,21.53
2018-03-10T07:38:36.508Z,22.07
2018-03-10T07:41:04.935Z,21.37
2018-03-10T07:43:34.478Z,21.97
2018-03-10T07:46:02.122Z,21.63
2018-03-10T07:48:29.732Z,20.83
2018-03-10T07:50:57.329Z,20.33
2018-03-10T07:53:24.940Z,21.40
2018-03-10T07:55:52.566Z,23.27
2018-03-10T07:58:20.187Z,23.70
2018-03-10T08:00:47.781Z,23.07
2018-03-10T08:03:15.428Z,21.37
2018-03-10T08:05:43.023Z,20.50
2018-03-10T08:08:10.664Z,19.80
2018-03-10T08:10:38.304Z,19.40
2018-03-10T08:13:05.898Z,19.60
2018-03-10T08:15:33.541Z,22.60
2018-03-10T08:18:01.153Z,20.90
2018-03-10T08:20:28.804Z,20.50
2018-03-10T08:22:57.187Z,20.30
2018-03-10T08:25:25.583Z,19.63
2018-03-10T08:27:53.227Z,21.17
2018-03-10T08:30:21.572Z,22.13
2018-03-10T08:32:49.175Z,21.60
2018-03-10T08:35:16.800Z,21.03
2018-03-10T08:37:44.440Z,21.80
2018-03-10T08:40:12.072Z,21.70
2018-03-10T08:42:39.686Z,21.77
2018-03-10T08:45:07.384Z,18.77
2018-03-10T08:47:34.962Z,20.80
2018-03-10T08:50:02.574Z,20.33
2018-03-10T08:52:30.145Z,21.23
2018-03-10T08:54:58.669Z,19.37
2018-03-10T08:57:26.254Z,19.80
2018-03-10T08:59:53.848Z,19.93
2018-03-10T09:02:22.256Z,21.57
2018-03-10T09:04:50.279Z,20.70
2018-03-10T09:07:18.655Z,20.50
2018-03-10T09:09:46.255Z,19.57
2018-03-10T09:12:13.883Z,17.90
2018-03-10T09:14:42.238Z,18.37
2018-03-10T09:17:09.824Z,19.13
2018-03-10T09:19:38.227Z,19.07
2018-03-10T09:22:05.886Z,19.10
2018-03-10T09:24:33.471Z,18.73
2018-03-10T09:27:01.219Z,16.97
2018-03-10T09:29:28.852Z,16.07
2018-03-10T09:31:57.205Z,18.10
2018-03-10T09:34:24.791Z,17.30
2018-03-10T09:36:53.165Z,18.43
2018-03-10T09:39:21.537Z,16.53
2018-03-10T09:41:49.922Z,18.80
2018-03-10T09:44:18.267Z,17.33
2018-03-10T09:46:45.922Z,18.23
2018-03-10T09:49:14.063Z,16.37
2018-03-10T09:51:42.504Z,16.60
2018-03-10T09:54:10.279Z,16.03
2018-03-10T09:56:38.628Z,17.30
2018-03-10T09:59:06.226Z,16.70
2018-03-10T10:01:34.598Z,16.90
2018-03-10T10:04:02.242Z,16.20
2018-03-10T10:06:30.639Z,18.30
2018-03-10T10:08:59.095Z,18.20
2018-03-10T10:11:27.515Z,16.60
2018-03-10T10:13:55.100Z,18.80
2018-03-10T10:16:26.146Z,18.70
2018-03-10T10:18:53.754Z,18.67
2018-03-10T10:21:22.161Z,19.67
2018-03-10T10:23:49.985Z,19.00
2018-03-10T10:26:18.357Z,18.90
2018-03-10T10:28:45.967Z,16.70
2018-03-10T10:31:13.587Z,18.53
2018-03-10T10:33:42.018Z,18.37
2018-03-10T10:36:09.648Z,18.73
2018-03-10T10:38:37.279Z,18.37
2018-03-10T10:41:04.932Z,17.57
2018-03-10T10:43:32.528Z,18.30
2018-03-10T10:46:00.136Z,16.63
2018-03-10T10:48:27.826Z,16.87
2018-03-10T10:50:56.247Z,19.53
2018-03-10T10:53:23.912Z,19.40
2018-03-10T10:55:51.580Z,17.00
2018-03-10T10:58:19.274Z,19.33
2018-03-10T11:00:49.940Z,17.50
2018-03-10T11:03:29.279Z,18.87
2018-03-10T11:05:56.904Z,19.63
2018-03-10T11:08:24.546Z,19.23
2018-03-10T11:10:52.756Z,20.43
2018-03-10T11:13:20.557Z,21.67
2018-03-10T11:15:48.198Z,20.87
2018-03-10T11:18:15.832Z,22.00
2018-03-10T11:20:44.226Z,20.90
2018-03-10T11:23:14.534Z,19.20
2018-03-10T11:25:42.507Z,20.13
2018-03-10T11:28:11.811Z,19.63
2018-03-10T11:30:40.878Z,21.77
2018-03-10T11:33:08.600Z,20.90
2018-03-10T11:35:36.246Z,19.90
2018-03-10T11:38:04.106Z,18.13
2018-03-10T11:40:31.771Z,19.63
2018-03-10T11:42:59.380Z,18.80
2018-03-10T11:45:26.975Z,20.60
2018-03-10T11:47:55.489Z,20.00
2018-03-10T11:50:23.121Z,19.20
2018-03-10T11:52:50.810Z,17.70
2018-03-10T11:55:18.413Z,25.20
2018-03-10T11:57:47.527Z,18.70
2018-03-10T12:00:15.197Z,20.23
2018-03-10T12:02:43.814Z,24.77
2018-03-10T12:05:11.510Z,35.70
2018-03-10T12:07:39.173Z,25.53
2018-03-10T12:10:06.818Z,20.67
2018-03-10T12:12:34.404Z,19.00
2018-03-10T12:15:02.184Z,18.97
2018-03-10T12:17:30.558Z,19.20
2018-03-10T12:19:59.024Z,17.50
2018-03-10T12:22:30.379Z,17.57
2018-03-10T12:24:58.061Z,17.27
2018-03-10T12:27:25.695Z,17.40
2018-03-10T12:29:53.310Z,18.17
2018-03-10T12:32:31.106Z,17.70
2018-03-10T12:34:58.916Z,17.80
2018-03-10T12:37:32.018Z,17.70
2018-03-10T12:39:59.651Z,16.70
2018-03-10T12:42:32.432Z,16.60
2018-03-10T12:45:00.154Z,16.40
2018-03-10T12:47:38.813Z,15.90
2018-03-10T12:50:06.526Z,15.70
2018-03-10T12:52:34.264Z,15.80
2018-03-10T12:55:01.970Z,15.60
2018-03-10T12:57:29.582Z,17.00
2018-03-10T12:59:57.196Z,16.13
2018-03-10T13:02:25.026Z,16.80
2018-03-10T13:04:52.630Z,16.27
2018-03-10T13:07:20.328Z,15.67
2018-03-10T13:09:47.926Z,16.67
2018-03-10T13:12:19.174Z,16.77
2018-03-10T13:14:46.796Z,16.80
2018-03-10T13:17:14.417Z,17.37
2018-03-10T13:19:42.223Z,18.10
2018-03-10T13:22:09.817Z,17.63
2018-03-10T13:24:37.433Z,19.03
2018-03-10T13:27:05.021Z,20.03
2018-03-10T13:29:32.753Z,16.50
2018-03-10T13:32:01.839Z,17.57
2018-03-10T13:34:29.452Z,18.40
2018-03-10T13:37:01.127Z,16.53
2018-03-10T13:39:30.640Z,17.00
2018-03-10T13:41:59.091Z,16.07
2018-03-10T13:44:26.693Z,15.70
2018-03-10T13:46:55.287Z,15.40
2018-03-10T13:49:22.902Z,17.33
2018-03-10T13:51:50.487Z,15.70
2018-03-10T13:54:18.444Z,16.07
2018-03-10T13:56:46.083Z,15.40
2018-03-10T13:59:13.768Z,14.83
2018-03-10T14:01:45.094Z,15.73
2018-03-10T14:04:25.761Z,17.87
2018-03-10T14:06:53.346Z,17.33
2018-03-10T14:09:20.917Z,16.13
2018-03-10T14:11:48.586Z,16.13
2018-03-10T14:14:16.163Z,22.13
2018-03-10T14:16:43.790Z,17.07
2018-03-10T14:19:11.406Z,17.03
2018-03-10T14:21:39.798Z,18.83
2018-03-10T14:24:07.457Z,17.77
2018-03-10T14:26:35.050Z,19.23
2018-03-10T14:29:06.042Z,19.07
2018-03-10T14:31:34.801Z,16.90
2018-03-10T14:34:03.180Z,18.60
2018-03-10T14:36:30.796Z,18.90
2018-03-10T14:38:58.449Z,18.27
2018-03-10T14:41:26.050Z,16.03
2018-03-10T14:43:53.740Z,19.60
2018-03-10T14:46:22.095Z,17.93
2018-03-10T14:48:53.614Z,19.33
2018-03-10T14:51:21.202Z,17.70
2018-03-10T14:53:59.029Z,17.10
2018-03-10T14:56:27.351Z,17.47
2018-03-10T14:58:55.001Z,17.30
2018-03-10T15:01:22.626Z,17.93
2018-03-10T15:03:50.245Z,18.67
2018-03-10T15:06:17.883Z,16.90
2018-03-10T15:08:45.498Z,17.87
2018-03-10T15:11:13.096Z,16.33
2018-03-10T15:13:40.727Z,15.00
2018-03-10T15:16:08.424Z,15.97
2018-03-10T15:18:36.842Z,17.03
2018-03-10T15:21:04.520Z,16.97
2018-03-10T15:23:36.459Z,16.00
2018-03-10T15:26:04.083Z,15.80
2018-03-10T15:28:36.737Z,16.03
2018-03-10T15:31:05.133Z,15.30
2018-03-10T15:33:33.682Z,16.97
2018-03-10T15:36:01.834Z,16.00
2018-03-10T15:38:34.791Z,16.67
2018-03-10T15:41:02.422Z,17.70
2018-03-10T15:46:24.096Z,15.53
2018-03-10T15:48:51.719Z,15.40
2018-03-10T15:51:20.310Z,16.60
2018-03-10T15:53:48.698Z,16.17
2018-03-10T15:56:18.128Z,14.53
2018-03-10T15:58:45.746Z,15.00
2018-03-10T16:01:25.045Z,15.90
2018-03-10T16:03:52.655Z,15.53
2018-03-10T16:06:20.259Z,15.70
2018-03-10T16:08:47.886Z,16.03
2018-03-10T16:11:17.476Z,17.73
2018-03-10T16:13:45.101Z,16.03
2018-03-10T16:16:12.733Z,16.10
2018-03-10T16:18:40.384Z,17.43
2018-03-10T16:21:07.987Z,18.03
2018-03-10T16:23:35.621Z,19.80
2018-03-10T16:26:03.351Z,18.30
2018-03-10T16:28:31.018Z,17.30
2018-03-10T16:31:02.674Z,20.40
2018-03-10T16:33:30.717Z,17.80
2018-03-10T16:36:03.561Z,18.03
2018-03-10T16:38:31.198Z,20.13
2018-03-10T16:40:58.861Z,19.33
2018-03-10T16:43:26.491Z,21.77
2018-03-10T16:45:58.459Z,19.20
2018-03-10T16:48:27.680Z,20.60
2018-03-10T16:50:55.264Z,20.30
2018-03-10T16:53:22.936Z,20.37
2018-03-10T16:55:52.502Z,20.77
2018-03-10T16:58:20.147Z,19.17
2018-03-10T17:00:47.787Z,18.80
2018-03-10T17:03:16.211Z,19.30
2018-03-10T17:05:49.467Z,21.03
2018-03-10T17:08:17.075Z,19.53
2018-03-10T17:10:45.755Z,20.57
2018-03-10T17:13:13.338Z,19.83
2018-03-10T17:15:41.500Z,19.83
2018-03-10T17:18:09.146Z,20.47
2018-03-10T17:20:37.775Z,19.77
2018-03-10T17:23:06.167Z,21.00
2018-03-10T17:25:35.559Z,20.83
2018-03-10T17:28:03.984Z,19.57
2018-03-10T17:30:35.726Z,20.60
2018-03-10T17:33:03.357Z,20.47
2018-03-10T17:35:32.796Z,21.00
2018-03-10T17:38:00.442Z,21.10
2018-03-10T17:40:30.077Z,20.90
2018-03-10T17:42:57.686Z,22.00
2018-03-10T17:45:29.229Z,22.30
2018-03-10T17:47:56.871Z,20.37
2018-03-10T17:50:26.623Z,21.27
2018-03-10T17:52:55.044Z,21.17
2018-03-10T17:55:23.288Z,23.47
2018-03-10T17:57:51.020Z,22.60
2018-03-10T18:00:18.636Z,22.67
2018-03-10T18:02:46.457Z,22.93
2018-03-10T18:05:14.882Z,20.90
2018-03-10T18:07:42.630Z,20.77
2018-03-10T18:10:12.525Z,21.20
2018-03-10T18:12:40.179Z,21.23
2018-03-10T18:15:15.783Z,22.63
2018-03-10T18:17:43.544Z,20.83
2018-03-10T18:20:24.073Z,22.47
2018-03-10T18:22:51.694Z,21.17
2018-03-10T18:25:20.519Z,21.87
2018-03-10T18:27:48.164Z,21.40
2018-03-10T18:30:22.556Z,22.77
2018-03-10T18:32:50.278Z,20.90
2018-03-10T18:35:18.288Z,22.50
2018-03-10T18:37:45.943Z,23.10
2018-03-10T18:40:17.594Z,22.53
2018-03-10T18:42:45.249Z,22.67
2018-03-10T18:45:13.203Z,23.77
2018-03-10T18:47:40.846Z,22.63
2018-03-10T18:50:10.691Z,22.03
2018-03-10T18:52:38.482Z,22.13
2018-03-10T18:55:06.906Z,24.20
2018-03-10T18:57:34.565Z,23.17
2018-03-10T19:00:15.162Z,35.00
2018-03-10T19:02:44.700Z,26.07
2018-03-10T19:05:16.637Z,26.37
2018-03-10T19:07:44.470Z,27.93
2018-03-10T19:10:12.823Z,28.37
2018-03-10T19:12:40.914Z,24.67
2018-03-10T19:15:10.620Z,26.97
2018-03-10T19:17:39.669Z,27.80
2018-03-10T19:20:11.964Z,28.30
2018-03-10T19:22:39.594Z,26.10
2018-03-10T19:25:11.581Z,26.40
2018-03-10T19:27:39.995Z,29.13
2018-03-10T19:30:07.903Z,29.47
2018-03-10T19:32:36.880Z,26.63
2018-03-10T19:35:04.631Z,25.87
2018-03-10T19:37:32.788Z,33.97
2018-03-10T19:40:04.294Z,30.17
2018-03-10T19:42:32.756Z,26.10
2018-03-10T19:45:03.249Z,26.17
2018-03-10T19:47:31.831Z,25.70
2018-03-10T19:50:00.492Z,23.90
2018-03-10T19:52:28.120Z,23.80
2018-03-10T19:54:56.054Z,26.17
2018-03-10T19:57:23.693Z,27.43
2018-03-10T19:59:53.445Z,32.60
2018-03-10T20:02:21.088Z,31.20
2018-03-10T20:04:50.808Z,26.80
2018-03-10T20:07:18.414Z,67.70
2018-03-10T20:09:49.700Z,28.27
2018-03-10T20:12:17.311Z,23.73
2018-03-10T20:14:55.583Z,22.47
2018-03-10T20:17:23.187Z,21.17
2018-03-10T20:19:57.291Z,20.90
2018-03-10T20:22:25.656Z,21.90
2018-03-10T20:24:54.362Z,21.23
2018-03-10T20:27:21.998Z,18.40
2018-03-10T20:29:54.220Z,19.60
2018-03-10T20:32:21.868Z,18.60
2018-03-10T20:34:49.755Z,19.87
2018-03-10T20:37:17.407Z,19.43
2018-03-10T20:39:49.905Z,19.43
2018-03-10T20:42:17.542Z,18.97
2018-03-10T20:44:47.349Z,18.93
2018-03-10T20:47:14.997Z,18.10
2018-03-10T20:49:42.848Z,17.17
2018-03-10T20:52:11.225Z,15.60
2018-03-10T20:54:39.842Z,15.77
2018-03-10T20:57:07.572Z,15.43
2018-03-10T20:59:35.965Z,15.80
2018-03-10T21:02:03.613Z,16.77
2018-03-10T21:04:37.160Z,16.13
2018-03-10T21:07:05.322Z,14.93
2018-03-10T21:09:37.128Z,14.70
2018-03-10T21:12:05.557Z,13.80
2018-03-10T21:14:40.966Z,12.57
2018-03-10T21:17:09.431Z,14.00
2018-03-10T21:19:37.980Z,12.97
2018-03-10T21:22:05.688Z,11.80
2018-03-10T21:24:34.518Z,13.73
2018-03-10T21:27:02.216Z,12.50
2018-03-10T21:29:38.873Z,13.23
2018-03-10T21:32:06.588Z,11.70
2018-03-10T21:34:37.828Z,11.93
2018-03-10T21:37:05.465Z,12.90
2018-03-10T21:39:38.855Z,12.93
2018-03-10T21:42:06.476Z,11.97
2018-03-10T21:44:50.623Z,12.40
2018-03-10T21:47:18.275Z,10.63
2018-03-10T21:49:47.472Z,10.83
2018-03-10T21:52:15.658Z,11.13
2018-03-10T21:54:43.306Z,10.70
2018-03-10T21:57:10.913Z,12.03
2018-03-10T21:59:40.656Z,11.37
2018-03-10T22:02:08.690Z,11.47
2018-03-10T22:04:44.101Z,11.63
2018-03-10T22:07:11.794Z,10.90
2018-03-10T22:09:39.353Z,11.97
2018-03-10T22:12:07.422Z,11.80
2018-03-10T22:14:35.223Z,11.63
2018-03-10T22:17:03.601Z,11.27
2018-03-10T22:19:31.357Z,11.27
2018-03-10T22:21:59.824Z,10.83
2018-03-10T22:24:27.474Z,11.33
2018-03-10T22:26:55.984Z,14.30
2018-03-10T22:29:28.255Z,15.43
2018-03-10T22:31:56.683Z,12.70
2018-03-10T22:34:24.320Z,19.17
2018-03-10T22:36:52.332Z,14.00
2018-03-10T22:39:21.486Z,11.97
2018-03-10T22:41:49.278Z,12.00
2018-03-10T22:44:17.498Z,13.47
2018-03-10T22:46:45.900Z,12.20
2018-03-10T22:49:15.610Z,12.27
2018-03-10T22:51:43.254Z,12.83
2018-03-10T22:54:11.615Z,13.80
2018-03-10T22:56:40.044Z,14.17
2018-03-10T22:59:07.868Z,13.43
2018-03-10T23:01:36.256Z,13.57
2018-03-10T23:04:03.982Z,15.40
2018-03-10T23:06:32.494Z,14.53
2018-03-10T23:09:01.958Z,13.23
2018-03-10T23:11:29.557Z,12.80
2018-03-10T23:13:58.133Z,13.47
2018-03-10T23:16:26.510Z,14.40
2018-03-10T23:18:58.294Z,14.53
2018-03-10T23:21:25.932Z,13.60
2018-03-10T23:23:56.881Z,13.70
2018-03-10T23:26:24.543Z,14.50
2018-03-10T23:28:52.428Z,13.63
2018-03-10T23:31:20.079Z,15.60
2018-03-10T23:33:47.906Z,15.00
2018-03-10T23:36:16.318Z,16.07
2018-03-10T23:38:44.051Z,15.23
2018-03-10T23:41:12.292Z,16.43
2018-03-10T23:43:39.954Z,15.17
2018-03-10T23:46:07.586Z,15.23
2018-03-10T23:48:35.388Z,15.80
2018-03-10T23:51:03.080Z,17.23
2018-03-10T23:53:34.932Z,15.77
2018-03-10T23:56:05.591Z,16.37
2018-03-10T23:58:34.193Z,14.80
